createdAt,value
2023-02-19T00:00:53.651Z,8.15
2023-02-19T00:03:20.208Z,8.07
2023-02-19T00:05:46.738Z,7.91
2023-02-19T00:08:13.396Z,7.88
2023-02-19T00:10:39.903Z,7.88
2023-02-19T00:13:06.455Z,7.94
2023-02-19T00:15:33.154Z,7.83
2023-02-19T00:17:59.701Z,7.89
2023-02-19T00:20:26.279Z,7.95
2023-02-19T00:22:52.799Z,7.92
2023-02-19T00:25:19.307Z,7.83
2023-02-19T00:27:45.809Z,7.90
2023-02-19T00:30:12.444Z,7.99
2023-02-19T00:32:39.024Z,8.02
2023-02-19T00:35:09.320Z,8.02
2023-02-19T00:37:35.850Z,7.90
2023-02-19T00:40:03.170Z,7.87
2023-02-19T00:42:29.674Z,7.89
2023-02-19T00:44:56.204Z,7.63
2023-02-19T00:47:22.726Z,7.74
2023-02-19T00:49:49.236Z,7.75
2023-02-19T00:52:15.777Z,7.85
2023-02-19T00:54:42.471Z,7.89
2023-02-19T00:57:09.019Z,7.83
2023-02-19T00:59:36.896Z,7.78
2023-02-19T01:02:03.497Z,7.85
2023-02-19T01:04:30.053Z,7.82
2023-02-19T01:06:56.761Z,7.62
2023-02-19T01:09:23.372Z,7.55
2023-02-19T01:11:49.880Z,7.69
2023-02-19T01:14:16.399Z,7.82
2023-02-19T01:16:42.924Z,7.69
2023-02-19T01:19:09.562Z,7.67
2023-02-19T01:21:36.101Z,7.70
2023-02-19T01:24:03.127Z,7.81
2023-02-19T01:26:30.484Z,7.77
2023-02-19T01:28:57.349Z,7.71
2023-02-19T01:31:24.159Z,7.68
2023-02-19T01:33:51.890Z,7.68
2023-02-19T01:36:18.430Z,7.66
2023-02-19T01:38:44.973Z,7.53
2023-02-19T01:41:12.898Z,7.53
2023-02-19T01:43:59.174Z,7.65
2023-02-19T01:46:29.393Z,7.72
2023-02-19T01:48:56.862Z,7.68
2023-02-19T01:51:23.405Z,7.58
2023-02-19T01:53:51.914Z,7.51
2023-02-19T01:56:18.428Z,7.61
2023-02-19T01:58:44.983Z,7.64
2023-02-19T02:01:13.273Z,7.64
2023-02-19T02:03:40.378Z,7.61
2023-02-19T02:06:15.665Z,7.66
2023-02-19T02:09:01.269Z,7.63
2023-02-19T02:11:27.844Z,7.67
2023-02-19T02:13:54.389Z,7.62
2023-02-19T02:16:32.819Z,7.63
2023-02-19T02:19:00.987Z,7.59
2023-02-19T02:21:48.333Z,7.68
2023-02-19T02:24:33.586Z,7.70
2023-02-19T02:27:26.649Z,7.74
2023-02-19T02:30:04.179Z,7.79
2023-02-19T02:32:35.618Z,7.66
2023-02-19T02:35:06.263Z,7.69
2023-02-19T02:37:33.545Z,7.69
2023-02-19T02:40:00.256Z,7.68
2023-02-19T02:42:29.983Z,7.70
2023-02-19T02:45:35.460Z,7.76
2023-02-19T02:48:44.925Z,7.84
2023-02-19T02:51:29.758Z,7.80
2023-02-19T02:54:43.984Z,7.81
2023-02-19T02:57:14.890Z,7.74
2023-02-19T02:59:52.395Z,7.71
2023-02-19T03:02:22.884Z,7.73
2023-02-19T03:05:11.928Z,7.72
2023-02-19T03:07:39.433Z,7.76
2023-02-19T03:10:07.181Z,7.71
2023-02-19T03:12:52.383Z,7.74
2023-02-19T03:15:37.287Z,7.73
2023-02-19T03:18:24.048Z,7.70
2023-02-19T03:20:51.324Z,7.77
2023-02-19T03:23:18.377Z,7.86
2023-02-19T03:26:03.556Z,7.88
2023-02-19T03:28:57.735Z,7.89
2023-02-19T03:31:25.299Z,7.93
2023-02-19T03:33:53.439Z,7.96
2023-02-19T03:36:25.697Z,7.98
2023-02-19T03:38:56.536Z,8.00
2023-02-19T03:41:31.135Z,8.03
2023-02-19T03:44:05.685Z,8.00
2023-02-19T03:46:32.124Z,7.99
2023-02-19T03:48:59.495Z,7.93
2023-02-19T03:51:28.805Z,7.98
2023-02-19T03:53:58.563Z,8.07
2023-02-19T03:56:25.258Z,8.03
2023-02-19T03:59:04.128Z,8.05
2023-02-19T04:01:36.614Z,8.11
2023-02-19T04:04:04.691Z,8.08
2023-02-19T04:06:31.984Z,8.09
2023-02-19T04:08:59.661Z,8.10
2023-02-19T04:11:26.743Z,8.16
2023-02-19T04:14:09.830Z,8.20
2023-02-19T04:16:37.239Z,8.18
2023-02-19T04:19:04.880Z,8.15
2023-02-19T04:21:31.546Z,8.19
2023-02-19T04:23:59.355Z,8.12
2023-02-19T04:26:25.887Z,8.22
2023-02-19T04:28:52.437Z,8.12
2023-02-19T04:31:19.064Z,8.14
2023-02-19T04:33:45.625Z,8.15
2023-02-19T04:36:12.286Z,8.09
2023-02-19T04:38:38.771Z,7.96
2023-02-19T04:41:05.397Z,8.02
2023-02-19T04:43:31.947Z,8.00
2023-02-19T04:46:01.981Z,8.00
2023-02-19T04:48:28.780Z,7.98
2023-02-19T04:50:55.295Z,8.04
2023-02-19T04:53:21.830Z,7.94
2023-02-19T04:55:48.537Z,8.09
2023-02-19T04:58:15.039Z,8.04
2023-02-19T05:00:41.548Z,8.03
2023-02-19T05:03:08.054Z,8.04
2023-02-19T05:05:34.913Z,8.05
2023-02-19T05:08:01.500Z,8.14
2023-02-19T05:10:28.017Z,8.12
2023-02-19T05:12:56.821Z,8.11
2023-02-19T05:15:24.326Z,8.11
2023-02-19T05:17:50.840Z,8.09
2023-02-19T05:20:17.326Z,8.15
2023-02-19T05:22:43.872Z,8.16
2023-02-19T05:25:10.417Z,8.19
2023-02-19T05:27:36.921Z,8.20
2023-02-19T05:30:03.693Z,8.22
2023-02-19T05:32:30.274Z,8.26
2023-02-19T05:34:56.772Z,8.30
2023-02-19T05:37:23.289Z,8.09
2023-02-19T05:39:49.954Z,8.14
2023-02-19T05:42:16.484Z,8.24
2023-02-19T05:44:43.016Z,8.27
2023-02-19T05:47:09.609Z,8.24
2023-02-19T05:49:36.136Z,8.23
2023-02-19T05:52:03.006Z,8.29
2023-02-19T05:54:29.838Z,8.40
2023-02-19T05:56:56.443Z,8.30
2023-02-19T05:59:23.769Z,8.31
2023-02-19T06:01:50.798Z,8.29
2023-02-19T06:04:19.203Z,8.29
2023-02-19T06:06:46.053Z,8.27
2023-02-19T06:09:12.562Z,8.26
2023-02-19T06:11:39.137Z,8.09
2023-02-19T06:14:05.650Z,7.97
2023-02-19T06:16:33.764Z,7.92
2023-02-19T06:19:04.127Z,7.92
2023-02-19T06:21:30.916Z,7.83
2023-02-19T06:23:57.401Z,7.81
2023-02-19T06:26:24.160Z,7.63
2023-02-19T06:28:51.028Z,7.64
2023-02-19T06:31:17.896Z,7.61
2023-02-19T06:33:44.492Z,7.54
2023-02-19T06:36:11.922Z,7.58
2023-02-19T06:38:38.432Z,7.55
2023-02-19T06:41:05.294Z,7.59
2023-02-19T06:43:31.998Z,7.44
2023-02-19T06:46:00.019Z,7.49
2023-02-19T06:48:27.125Z,7.49
2023-02-19T06:50:53.709Z,7.40
2023-02-19T06:53:20.185Z,7.37
2023-02-19T06:56:06.905Z,7.39
2023-02-19T06:58:33.495Z,7.28
2023-02-19T07:01:00.098Z,7.25
2023-02-19T07:03:26.614Z,7.13
2023-02-19T07:05:54.549Z,7.14
2023-02-19T07:08:21.254Z,7.17
2023-02-19T07:10:55.403Z,7.06
2023-02-19T07:13:22.281Z,7.13
2023-02-19T07:15:51.082Z,7.15
2023-02-19T07:18:18.470Z,7.32
2023-02-19T07:20:45.015Z,7.23
2023-02-19T07:23:11.514Z,7.14
2023-02-19T07:25:37.986Z,7.25
2023-02-19T07:28:06.015Z,7.20
2023-02-19T07:30:32.568Z,7.24
2023-02-19T07:32:59.176Z,7.21
2023-02-19T07:35:25.711Z,7.19
2023-02-19T07:37:52.214Z,7.26
2023-02-19T07:40:18.808Z,7.26
2023-02-19T07:42:45.343Z,7.19
2023-02-19T07:45:11.886Z,7.26
2023-02-19T07:47:38.369Z,7.20
2023-02-19T07:50:05.142Z,7.12
2023-02-19T07:52:31.732Z,7.16
2023-02-19T07:54:58.235Z,7.23
2023-02-19T07:57:24.781Z,7.26
2023-02-19T07:59:51.337Z,7.20
2023-02-19T08:02:37.263Z,7.15
2023-02-19T08:05:03.985Z,7.11
2023-02-19T08:07:31.144Z,7.13
2023-02-19T08:10:17.591Z,7.06
2023-02-19T08:13:02.984Z,7.05
2023-02-19T08:15:29.485Z,7.08
2023-02-19T08:17:56.285Z,6.98
2023-02-19T08:20:22.817Z,6.96
2023-02-19T08:22:49.330Z,7.04
2023-02-19T08:25:15.983Z,7.00
2023-02-19T08:27:42.474Z,7.02
2023-02-19T08:30:09.154Z,7.13
2023-02-19T08:32:35.682Z,7.10
2023-02-19T08:35:02.249Z,7.25
2023-02-19T08:37:28.741Z,7.15
2023-02-19T08:39:55.253Z,7.21
2023-02-19T08:42:21.747Z,7.20
2023-02-19T08:44:48.249Z,7.16
2023-02-19T08:47:15.046Z,7.21
2023-02-19T08:49:41.563Z,7.26
2023-02-19T08:52:08.096Z,7.23
2023-02-19T08:54:36.782Z,7.28
2023-02-19T08:57:05.186Z,7.39
2023-02-19T08:59:31.838Z,7.44
2023-02-19T09:01:58.551Z,7.40
2023-02-19T09:04:25.177Z,7.44
2023-02-19T09:06:51.700Z,7.42
2023-02-19T09:09:18.185Z,7.41
2023-02-19T09:11:44.847Z,7.37
2023-02-19T09:14:11.481Z,7.05
2023-02-19T09:16:38.205Z,6.89
2023-02-19T09:19:05.061Z,6.50
2023-02-19T09:21:31.759Z,6.66
2023-02-19T09:23:58.501Z,6.50
2023-02-19T09:26:25.414Z,6.43
2023-02-19T09:28:52.045Z,6.32
2023-02-19T09:31:18.776Z,6.08
2023-02-19T09:33:46.414Z,6.25
2023-02-19T09:36:13.849Z,6.24
2023-02-19T09:38:40.646Z,5.91
2023-02-19T09:41:09.599Z,5.74
2023-02-19T09:43:36.989Z,5.77
2023-02-19T09:46:09.256Z,5.82
2023-02-19T09:48:35.937Z,5.75
2023-02-19T09:51:02.570Z,5.38
2023-02-19T09:53:31.174Z,5.26
2023-02-19T09:55:58.127Z,5.25
2023-02-19T09:58:30.105Z,5.41
2023-02-19T10:01:01.150Z,5.30
2023-02-19T10:03:34.445Z,5.02
2023-02-19T10:06:02.519Z,4.95
2023-02-19T10:08:31.864Z,4.76
2023-02-19T10:10:58.638Z,4.75
2023-02-19T10:13:48.556Z,4.58
2023-02-19T10:16:20.533Z,4.49
2023-02-19T10:18:47.752Z,4.48
2023-02-19T10:21:19.822Z,4.40
2023-02-19T10:23:47.160Z,4.40
2023-02-19T10:26:13.814Z,4.44
2023-02-19T10:28:41.439Z,4.58
2023-02-19T10:31:20.532Z,4.46
2023-02-19T10:33:52.024Z,4.50
2023-02-19T10:36:36.328Z,4.59
2023-02-19T10:39:06.041Z,4.49
2023-02-19T10:41:32.726Z,4.43
2023-02-19T10:44:02.361Z,4.42
2023-02-19T10:46:31.717Z,4.63
2023-02-19T10:48:59.556Z,4.34
2023-02-19T10:51:37.042Z,4.55
2023-02-19T10:54:14.542Z,4.31
2023-02-19T10:56:42.132Z,4.31
2023-02-19T10:59:27.623Z,4.25
2023-02-19T11:02:09.289Z,4.41
2023-02-19T11:04:38.115Z,4.44
2023-02-19T11:07:11.724Z,4.20
2023-02-19T11:09:39.502Z,4.18
2023-02-19T11:12:08.393Z,4.16
2023-02-19T11:14:35.996Z,4.39
2023-02-19T11:17:04.863Z,4.41
2023-02-19T11:19:37.028Z,4.15
2023-02-19T11:22:31.535Z,4.40
2023-02-19T11:25:05.611Z,4.55
2023-02-19T11:27:32.293Z,3.96
2023-02-19T11:30:22.420Z,4.17
2023-02-19T11:32:49.131Z,4.02
2023-02-19T11:35:25.113Z,4.03
2023-02-19T11:37:56.889Z,4.41
2023-02-19T11:40:38.111Z,4.36
2023-02-19T11:43:26.128Z,4.11
2023-02-19T11:46:05.528Z,4.21
2023-02-19T11:48:34.515Z,4.29
2023-02-19T11:51:31.236Z,4.70
2023-02-19T11:54:24.075Z,4.37
2023-02-19T11:57:14.135Z,4.71
2023-02-19T12:00:19.870Z,4.30
2023-02-19T12:02:58.628Z,4.31
2023-02-19T12:05:42.305Z,4.66
2023-02-19T12:08:53.538Z,4.43
2023-02-19T12:11:45.245Z,4.30
2023-02-19T12:14:51.823Z,4.20
2023-02-19T12:17:43.078Z,4.19
2023-02-19T12:20:21.685Z,4.27
2023-02-19T12:23:17.010Z,4.30
2023-02-19T12:25:58.848Z,4.39
2023-02-19T12:28:34.405Z,4.15
2023-02-19T12:31:07.349Z,4.18
2023-02-19T12:33:36.687Z,4.36
2023-02-19T12:36:31.802Z,4.64
2023-02-19T12:39:06.413Z,4.57
2023-02-19T12:41:39.181Z,4.47
2023-02-19T12:44:23.213Z,4.35
2023-02-19T12:46:53.061Z,4.25
2023-02-19T12:49:28.480Z,4.55
2023-02-19T12:52:03.607Z,4.48
2023-02-19T12:54:41.863Z,4.31
2023-02-19T12:57:20.839Z,4.42
2023-02-19T13:00:03.179Z,4.43
2023-02-19T13:02:29.846Z,4.45
2023-02-19T13:05:02.116Z,4.43
2023-02-19T13:07:33.828Z,4.41
2023-02-19T13:10:08.270Z,4.65
2023-02-19T13:12:39.428Z,4.87
2023-02-19T13:15:37.180Z,4.57
2023-02-19T13:18:05.162Z,4.44
2023-02-19T13:20:34.072Z,4.66
2023-02-19T13:23:26.581Z,4.58
2023-02-19T13:26:03.238Z,4.51
2023-02-19T13:28:52.837Z,4.92
2023-02-19T13:31:25.731Z,4.64
2023-02-19T13:34:09.758Z,5.17
2023-02-19T13:36:36.404Z,4.93
2023-02-19T13:39:05.368Z,4.68
2023-02-19T13:41:38.401Z,4.60
2023-02-19T13:44:06.618Z,4.75
2023-02-19T13:46:35.713Z,4.58
2023-02-19T13:49:31.755Z,4.51
2023-02-19T13:51:59.262Z,4.48
2023-02-19T13:54:37.252Z,4.52
2023-02-19T13:57:19.635Z,4.41
2023-02-19T13:59:56.663Z,4.54
2023-02-19T14:02:23.339Z,4.60
2023-02-19T14:04:53.940Z,4.58
2023-02-19T14:07:22.815Z,4.51
2023-02-19T14:09:49.483Z,4.81
2023-02-19T14:12:16.429Z,5.13
2023-02-19T14:14:48.708Z,5.05
2023-02-19T14:17:27.281Z,5.12
2023-02-19T14:20:01.256Z,4.97
2023-02-19T14:22:47.556Z,4.96
2023-02-19T14:25:38.927Z,5.45
2023-02-19T14:28:30.061Z,5.64
2023-02-19T14:31:11.625Z,5.23
2023-02-19T14:33:49.291Z,4.99
2023-02-19T14:36:26.348Z,5.14
2023-02-19T14:39:01.286Z,4.52
2023-02-19T14:41:28.744Z,4.75
2023-02-19T14:43:55.815Z,4.72
2023-02-19T14:46:35.279Z,4.86
2023-02-19T14:49:06.690Z,4.73
2023-02-19T14:51:39.140Z,4.77
2023-02-19T14:54:15.338Z,4.70
2023-02-19T14:56:43.583Z,4.64
2023-02-19T14:59:13.114Z,4.76
2023-02-19T15:01:39.977Z,4.59
2023-02-19T15:04:06.676Z,4.78
2023-02-19T15:06:34.434Z,4.63
2023-02-19T15:09:06.069Z,4.59
2023-02-19T15:11:32.730Z,4.59
2023-02-19T15:14:01.177Z,4.73
2023-02-19T15:16:28.259Z,4.77
2023-02-19T15:18:54.947Z,4.87
2023-02-19T15:21:29.191Z,4.92
2023-02-19T15:24:02.951Z,4.82
2023-02-19T15:26:43.192Z,4.54
2023-02-19T15:29:14.599Z,4.55
2023-02-19T15:31:48.730Z,4.60
2023-02-19T15:34:19.704Z,4.87
2023-02-19T15:36:46.552Z,4.51
2023-02-19T15:39:21.156Z,4.60
2023-02-19T15:42:00.741Z,4.65
2023-02-19T15:45:03.092Z,4.67
2023-02-19T15:48:03.403Z,4.53
2023-02-19T15:50:31.704Z,4.66
2023-02-19T15:53:09.425Z,4.56
2023-02-19T15:55:43.740Z,4.53
2023-02-19T15:58:15.562Z,4.40
2023-02-19T16:00:46.656Z,4.56
2023-02-19T16:03:17.847Z,4.56
2023-02-19T16:05:44.534Z,4.37
2023-02-19T16:08:11.073Z,4.46
2023-02-19T16:10:38.039Z,4.84
2023-02-19T16:13:05.289Z,4.73
2023-02-19T16:15:32.534Z,4.99
2023-02-19T16:17:59.248Z,4.87
2023-02-19T16:20:33.463Z,4.90
2023-02-19T16:23:11.413Z,5.22
2023-02-19T16:25:41.920Z,5.12
2023-02-19T16:28:21.417Z,5.05
2023-02-19T16:30:56.297Z,4.78
2023-02-19T16:33:36.430Z,4.72
2023-02-19T16:36:22.971Z,5.01
2023-02-19T16:39:08.286Z,4.43
2023-02-19T16:41:47.321Z,4.52
2023-02-19T16:44:30.940Z,4.74
2023-02-19T16:46:58.508Z,3.99
2023-02-19T16:49:25.144Z,3.61
2023-02-19T16:51:51.814Z,3.39
2023-02-19T16:54:18.448Z,3.34
2023-02-19T16:56:45.118Z,3.57
2023-02-19T16:59:11.716Z,3.41
2023-02-19T17:01:38.542Z,3.88
2023-02-19T17:04:06.922Z,3.94
2023-02-19T17:06:34.832Z,3.22
2023-02-19T17:09:01.604Z,3.21
2023-02-19T17:11:28.290Z,2.89
2023-02-19T17:13:55.061Z,2.79
2023-02-19T17:16:23.373Z,2.79
2023-02-19T17:18:50.709Z,3.25
2023-02-19T17:21:22.437Z,3.28
2023-02-19T17:23:49.483Z,3.19
2023-02-19T17:26:20.457Z,3.52
2023-02-19T17:28:47.373Z,3.42
2023-02-19T17:31:16.885Z,3.54
2023-02-19T17:33:43.780Z,3.71
2023-02-19T17:36:26.956Z,3.69
2023-02-19T17:38:54.279Z,3.41
2023-02-19T17:41:20.900Z,3.25
2023-02-19T17:43:48.237Z,3.22
2023-02-19T17:46:18.533Z,3.55
2023-02-19T17:48:45.397Z,3.68
2023-02-19T17:51:12.508Z,3.70
2023-02-19T17:53:39.392Z,3.13
2023-02-19T17:56:06.167Z,2.68
2023-02-19T17:58:32.789Z,3.01
2023-02-19T18:00:59.394Z,3.16
2023-02-19T18:03:26.093Z,2.68
2023-02-19T18:05:52.705Z,2.54
2023-02-19T18:08:19.348Z,2.38
2023-02-19T18:10:46.026Z,2.90
2023-02-19T18:13:12.760Z,3.15
2023-02-19T18:15:39.370Z,2.73
2023-02-19T18:18:06.020Z,3.04
2023-02-19T18:20:32.683Z,3.03
2023-02-19T18:22:59.408Z,2.74
2023-02-19T18:25:26.052Z,2.82
2023-02-19T18:27:52.745Z,2.74
2023-02-19T18:30:22.905Z,2.21
2023-02-19T18:32:49.828Z,2.13
2023-02-19T18:35:17.289Z,2.52
2023-02-19T18:37:43.943Z,2.67
2023-02-19T18:40:11.608Z,2.48
2023-02-19T18:42:38.263Z,2.47
2023-02-19T18:45:05.072Z,2.58
2023-02-19T18:47:31.692Z,2.36
2023-02-19T18:49:58.682Z,2.46
2023-02-19T18:52:25.762Z,2.27
2023-02-19T18:54:53.632Z,2.21
2023-02-19T18:57:20.976Z,2.27
2023-02-19T18:59:47.675Z,2.14
2023-02-19T19:02:15.693Z,2.13
2023-02-19T19:04:43.187Z,1.81
2023-02-19T19:07:10.135Z,1.58
2023-02-19T19:09:36.914Z,1.82
2023-02-19T19:12:04.026Z,2.06
2023-02-19T19:14:30.680Z,2.31
2023-02-19T19:16:57.328Z,2.18
2023-02-19T19:19:24.083Z,2.07
2023-02-19T19:21:53.474Z,2.13
2023-02-19T19:24:20.748Z,1.92
2023-02-19T19:26:47.963Z,1.74
2023-02-19T19:29:16.067Z,2.04
2023-02-19T19:31:42.983Z,2.03
2023-02-19T19:34:10.229Z,1.48
2023-02-19T19:36:36.848Z,1.80
2023-02-19T19:39:04.086Z,2.02
2023-02-19T19:41:30.985Z,2.18
2023-02-19T19:43:57.733Z,1.93
2023-02-19T19:46:24.407Z,1.93
2023-02-19T19:48:52.844Z,1.96
2023-02-19T19:51:20.080Z,2.12
2023-02-19T19:53:47.946Z,2.30
2023-02-19T19:56:14.910Z,2.01
2023-02-19T19:58:41.613Z,2.19
2023-02-19T20:01:08.215Z,2.27
2023-02-19T20:03:34.887Z,2.36
2023-02-19T20:06:01.502Z,2.44
2023-02-19T20:08:28.087Z,2.47
2023-02-19T20:10:54.680Z,2.47
2023-02-19T20:13:26.410Z,2.42
2023-02-19T20:15:53.068Z,2.10
2023-02-19T20:18:21.517Z,2.11
2023-02-19T20:20:48.140Z,2.06
2023-02-19T20:23:14.874Z,1.98
2023-02-19T20:25:41.510Z,1.80
2023-02-19T20:28:08.151Z,1.78
2023-02-19T20:30:37.134Z,1.78
2023-02-19T20:33:03.932Z,2.05
2023-02-19T20:35:30.576Z,2.26
2023-02-19T20:37:57.284Z,2.57
2023-02-19T20:40:30.408Z,2.83
2023-02-19T20:42:57.385Z,2.80
2023-02-19T20:45:24.091Z,2.75
2023-02-19T20:47:50.717Z,2.94
2023-02-19T20:50:18.772Z,2.82
2023-02-19T20:52:46.182Z,2.62
2023-02-19T20:55:12.887Z,2.81
2023-02-19T20:57:39.500Z,2.93
2023-02-19T21:00:06.726Z,2.95
2023-02-19T21:02:33.509Z,3.48
2023-02-19T21:05:00.865Z,3.34
2023-02-19T21:07:27.509Z,3.24
2023-02-19T21:09:54.211Z,3.19
2023-02-19T21:12:21.325Z,3.05
2023-02-19T21:14:48.109Z,3.22
2023-02-19T21:17:14.776Z,3.44
2023-02-19T21:19:41.530Z,3.38
2023-02-19T21:22:08.194Z,3.59
2023-02-19T21:24:34.828Z,2.97
2023-02-19T21:27:01.536Z,3.16
2023-02-19T21:29:28.202Z,3.41
2023-02-19T21:31:55.869Z,3.55
2023-02-19T21:34:27.342Z,3.58
2023-02-19T21:36:54.280Z,3.49
2023-02-19T21:39:22.567Z,3.57
2023-02-19T21:41:49.203Z,3.73
2023-02-19T21:44:15.920Z,3.66
2023-02-19T21:46:42.566Z,3.70
2023-02-19T21:49:09.282Z,3.67
2023-02-19T21:51:37.925Z,3.81
2023-02-19T21:54:05.021Z,3.83
2023-02-19T21:56:35.812Z,3.87
2023-02-19T21:59:02.953Z,3.94
2023-02-19T22:01:31.665Z,3.80
2023-02-19T22:03:58.352Z,3.92
2023-02-19T22:06:28.638Z,4.00
2023-02-19T22:08:55.625Z,4.22
2023-02-19T22:11:22.254Z,4.08
2023-02-19T22:13:48.953Z,4.07
2023-02-19T22:16:15.689Z,4.07
2023-02-19T22:18:52.317Z,4.16
2023-02-19T22:21:19.121Z,4.23
2023-02-19T22:23:46.779Z,4.15
2023-02-19T22:26:20.563Z,4.21
2023-02-19T22:28:48.010Z,4.23
2023-02-19T22:31:16.234Z,4.12
2023-02-19T22:33:43.032Z,3.87
2023-02-19T22:36:15.091Z,4.40
2023-02-19T22:38:41.695Z,4.45
2023-02-19T22:41:08.394Z,4.20
2023-02-19T22:43:35.167Z,4.35
2023-02-19T22:46:01.789Z,4.34
2023-02-19T22:48:32.491Z,4.17
2023-02-19T22:50:59.273Z,4.31
2023-02-19T22:53:25.938Z,4.37
2023-02-19T22:55:52.560Z,4.45
2023-02-19T22:58:19.169Z,4.49
2023-02-19T23:00:45.904Z,4.48
2023-02-19T23:03:12.800Z,4.62
2023-02-19T23:05:39.437Z,4.71
2023-02-19T23:08:06.027Z,4.58
2023-02-19T23:10:33.160Z,4.69
2023-02-19T23:12:59.787Z,4.77
2023-02-19T23:15:26.419Z,4.77
2023-02-19T23:17:53.014Z,4.66
2023-02-19T23:20:19.726Z,4.63
2023-02-19T23:22:46.293Z,4.69
2023-02-19T23:25:13.105Z,4.80
2023-02-19T23:27:39.683Z,4.70
2023-02-19T23:30:06.951Z,4.83
2023-02-19T23:32:33.604Z,4.80
2023-02-19T23:35:00.253Z,4.78
2023-02-19T23:37:26.863Z,4.77
2023-02-19T23:39:53.683Z,4.88
2023-02-19T23:42:20.278Z,4.90
2023-02-19T23:44:47.279Z,4.95
2023-02-19T23:47:14.237Z,4.90
2023-02-19T23:49:41.060Z,4.93
2023-02-19T23:52:07.650Z,4.93
2023-02-19T23:54:34.850Z,4.92
2023-02-19T23:57:01.498Z,4.85
2023-02-19T23:59:28.436Z,4.96
